• Join FlightAware (Why Join?)
  • Login
  • US Flag 
10:31PM EDT


 

Airport Tracker/Info


-or-


 

Live Flight TrackerFlight Track Log ✈ WWI24 ✈ 26-Apr-2013 ✈ KSBA - KVNY

Flight Track Log - Related Links

Times and Time Zones

All times are in EDT time to prevent confusion due to time zone crossing. See the WWI24 flight status page for this flight to view local times or setup timezone preferences in your user account.

Time Position Orientation Groundspeed Altitude Reporting Facility
EDT Latitude Longitude Course Direction KTS MPH feet Rate Location/Type
06:18PM 34.4275 -119.9200 271° West 209 241 3,800  Level Los Angeles Center
06:18PM 34.3969 -119.9542 223° Southwest 222 255 6,300 3,180 Climbing Los Angeles Center
06:19PM 34.3794 -119.9481 164° South 248 285 7,200 1,260 Climbing Los Angeles Center
06:20PM 34.3225 -119.9131 153° Southeast 235 270 8,100 1,260 Climbing Los Angeles Center
06:21PM 34.3278 -119.8267 86° East 250 288 9,900 1,380 Climbing Los Angeles Center
06:22PM 34.3303 -119.7264 88° East 278 320 11,000 480 Climbing Los Angeles Center
06:23PM 34.3361 -119.5831 87° East 331 381 11,000  Level Los Angeles Center
06:24PM 34.3414 -119.4672 87° East 344 396 11,000 -60 Level Los Angeles Center
06:25PM 34.3453 -119.3497 88° East 349 402 10,900 -240 Descending Los Angeles Center
06:26PM 34.3472 -119.2375 89° East 336 387 10,600 -900 Descending Los Angeles Center
06:27PM 34.3508 -119.1392 87° East 300 345 9,100 -780 Descending Los Angeles Center
06:28PM 34.3536 -119.0461 88° East 283 326 9,000 -60 Descending Los Angeles Center
06:29PM 34.3561 -118.9322 88° East 283 326 9,000 -660 Level Los Angeles Center
06:30PM 34.3711 -118.8394 79° East 279 321 7,700 -1,320 Descending Los Angeles Center
06:31PM 34.4003 -118.7544 67° East 274 315 6,300 -1,320 Descending Los Angeles Center
06:32PM 34.4281 -118.6697 68° East 268 308 5,000 -600 Descending Los Angeles Center
06:33PM 34.4550 -118.5850 69° East 267 307 5,000  Level Los Angeles Center
06:34PM 34.4308 -118.5075 111° Southeast 221 254 5,000 -120 Level Los Angeles Center
06:36PM 34.3714 -118.5081 180° South 177 204 4,800 -720 Descending Los Angeles Center
06:36PM 34.3333 -118.5000 170° South 175 201 3,700 -1,260 Descending Southern California TRACON
06:37PM 34.2833 -118.5000 180° South 166 191 2,500 -1,140 Descending Southern California TRACON
06:38PM 34.2333 -118.5000 180° South 139 160 1,500 -1,020 Descending Southern California TRACON
06:41PM 34.2098 -118.4900 180° South  Level Estimated
06:48PM 34.2098 -118.4900 180° South  Level Estimated